Time;durP1;ratioP1;P1;durP2;ratioP2;P2;SDS_P1;SDS_P2;PMS_P1;PMS_P2;Temp;Humidity;BMP_temperature;BMP_pressure;BME280_temperature;BME280_humidity;BME280_pressure;Samples;Min_cycle;Max_cycle;Signal;HPM_P1;HPM_P2
2022/05/02 00:02:02;;;;;;;16.60;11.60;;;10.50;61.70;;;6.33;83.54;95536.94;4996381;28;20030;-47
2022/05/02 00:04:30;;;;;;;18.08;11.73;;;10.40;61.80;;;6.20;84.03;95530.09;5013907;28;20029;-47
2022/05/02 00:06:56;;;;;;;19.80;14.30;;;10.40;61.90;;;6.11;86.07;95528.06;5014161;28;20037;-47
2022/05/02 00:09:30;;;;;;;21.98;13.10;;;10.30;62.20;;;6.13;86.37;95529.44;5013895;28;20056;-47
2022/05/02 00:11:58;;;;;;;19.85;13.40;;;10.20;62.80;;;6.17;86.99;95535.06;5013836;28;20065;-48
2022/05/02 00:14:30;;;;;;;21.00;12.57;;;10.20;63.30;;;6.23;86.81;95526.97;5013827;28;20022;-48
2022/05/02 00:16:55;;;;;;;12.13;9.30;;;10.20;63.60;;;6.34;86.68;95519.22;5013856;28;20497;-47
2022/05/02 00:19:24;;;;;;;17.17;11.43;;;10.20;64.20;;;6.38;86.84;95525.63;4996338;28;20061;-49
2022/05/02 00:21:53;;;;;;;17.30;12.07;;;10.30;64.50;;;6.44;86.25;95519.38;5013667;28;20025;-46
2022/05/02 00:24:31;;;;;;;16.73;11.82;;;10.30;64.60;;;6.46;86.16;95522.59;4996418;28;20121;-50
2022/05/02 00:27:05;;;;;;;16.38;11.18;;;10.30;64.40;;;6.46;86.20;95514.66;4996628;28;20463;-53
2022/05/02 00:29:34;;;;;;;15.35;12.00;;;10.40;64.90;;;6.53;85.81;95514.50;5015653;28;20116;-48
2022/05/02 00:32:04;;;;;;;16.70;12.02;;;10.40;64.80;;;6.57;85.53;95518.28;4998414;28;20388;-50
2022/05/02 00:34:32;;;;;;;14.90;11.18;;;10.40;64.70;;;6.63;85.51;95510.16;5015586;28;20026;-52
2022/05/02 00:37:00;;;;;;;14.32;11.05;;;10.40;64.90;;;6.67;84.98;95508.63;5033242;28;20079;-48
2022/05/02 00:39:32;;;;;;;17.08;11.82;;;10.50;65.10;;;6.67;84.81;95500.69;5033107;28;20029;-49
2022/05/02 00:42:07;;;;;;;14.00;11.10;;;10.50;65.00;;;6.77;84.78;95500.06;5015704;28;20491;-50
2022/05/02 00:44:32;;;;;;;15.52;11.50;;;10.50;65.10;;;6.84;84.30;95494.59;5033118;28;20033;-49
2022/05/02 00:46:58;;;;;;;16.73;12.10;;;10.60;65.20;;;6.92;84.16;95494.19;5031677;28;20033;-49
2022/05/02 00:49:24;;;;;;;15.15;10.38;;;10.60;65.40;;;6.98;83.56;95503.78;5032929;28;20511;-49
2022/05/02 00:51:50;;;;;;;16.92;12.38;;;10.70;65.20;;;6.97;83.59;95496.91;5011632;28;20049;-48
2022/05/02 00:54:18;;;;;;;15.98;11.25;;;10.80;65.10;;;6.98;83.30;95495.84;5000000;28;20023;-51
2022/05/02 00:56:44;;;;;;;16.13;10.98;;;10.80;65.10;;;6.95;83.26;95486.53;4993462;28;20034;-50
2022/05/02 00:59:16;;;;;;;15.68;11.57;;;10.80;65.70;;;6.98;83.36;95495.84;4992421;28;20041;-52
2022/05/02 01:01:43;;;;;;;15.70;12.02;;;10.80;65.00;;;6.95;83.41;95491.03;4992207;28;20038;-50
2022/05/02 01:04:12;;;;;;;18.17;13.55;;;10.80;64.60;;;6.90;83.93;95491.78;4993305;28;20051;-49
2022/05/02 01:09:26;;;;;;;15.88;12.02;;;10.80;65.10;;;6.94;83.86;95478.84;4992366;28;20040;-48
2022/05/02 01:11:53;;;;;;;17.50;12.05;;;10.80;65.00;;;7.00;83.80;95475.22;4992002;28;20030;-49
2022/05/02 01:14:19;;;;;;;17.92;12.38;;;10.80;65.30;;;7.04;83.54;95472.88;4992052;28;20442;-52
2022/05/02 01:16:51;;;;;;;16.73;12.10;;;10.90;65.60;;;7.10;83.39;95487.81;4991994;28;20034;-50
2022/05/02 01:19:20;;;;;;;14.63;11.50;;;10.90;65.80;;;7.11;83.38;95474.34;4991960;28;20034;-49
2022/05/02 01:21:49;;;;;;;18.52;13.32;;;10.90;65.70;;;7.14;83.27;95475.66;4993086;28;20037;-50
2022/05/02 01:24:14;;;;;;;17.02;12.45;;;10.90;65.80;;;7.15;83.31;95470.13;4993047;28;20121;-48
2022/05/02 01:26:43;;;;;;;17.40;12.98;;;11.00;65.90;;;7.16;83.01;95470.94;4993173;28;20460;-48
2022/05/02 01:29:09;;;;;;;18.85;12.98;;;11.00;65.80;;;7.15;83.13;95472.78;5008021;28;20105;-50
2022/05/02 01:31:37;;;;;;;16.15;12.13;;;11.10;65.80;;;7.12;83.19;95469.84;4992931;28;20438;-47
2022/05/02 01:34:03;;;;;;;16.85;11.50;;;11.00;65.60;;;7.09;83.46;95476.41;4992990;28;20109;-48
2022/05/02 01:36:34;;;;;;;17.27;12.50;;;11.00;65.50;;;7.06;83.44;95468.97;4991906;28;20464;-50
2022/05/02 01:39:00;;;;;;;19.20;13.25;;;11.00;65.40;;;7.05;83.42;95470.00;4991648;28;20034;-47
2022/05/02 01:41:35;;;;;;;18.52;12.80;;;11.00;65.40;;;7.04;83.20;95478.97;4992870;28;20140;-51
2022/05/02 01:44:10;;;;;;;18.13;12.77;;;11.00;65.30;;;6.98;83.50;95476.50;4994592;28;20405;-48
2022/05/02 01:46:45;;;;;;;20.50;14.05;;;10.90;65.10;;;6.90;83.56;95472.44;4995760;28;20397;-48
2022/05/02 01:49:14;;;;;;;18.60;13.63;;;10.90;64.90;;;6.81;83.78;95474.72;4995648;28;20040;-48
2022/05/02 01:51:42;;;;;;;19.98;14.02;;;10.80;64.70;;;6.72;83.58;95476.97;4979631;28;20057;-50
2022/05/02 01:54:11;;;;;;;23.98;15.55;;;10.70;64.60;;;6.57;84.40;95468.78;4996950;28;20109;-48
2022/05/02 01:56:37;;;;;;;25.13;15.57;;;10.70;65.50;;;6.52;85.43;95468.72;4995670;28;20022;-47
2022/05/02 01:59:04;;;;;;;25.67;15.70;;;10.60;64.80;;;6.53;85.11;95472.16;4996730;28;20030;-47
2022/05/02 02:01:42;;;;;;;21.58;14.52;;;10.60;65.20;;;6.51;84.70;95466.31;4996706;28;20030;-47
2022/05/02 02:06:55;;;;;;;22.15;14.88;;;10.40;65.00;;;6.33;85.00;95473.47;4997009;28;20097;-47
2022/05/02 02:09:23;;;;;;;26.25;17.17;;;10.40;65.00;;;6.25;85.71;95469.34;4996466;28;20081;-49
2022/05/02 02:12:01;;;;;;;23.15;16.23;;;10.30;65.00;;;6.21;85.11;95475.38;4995239;28;20022;-50
2022/05/02 02:14:33;;;;;;;28.58;17.15;;;10.20;64.90;;;6.12;85.18;95474.16;4996533;28;20097;-46
2022/05/02 02:17:01;;;;;;;24.60;16.05;;;10.20;65.00;;;6.02;85.11;95472.13;4996490;28;20057;-47
2022/05/02 02:19:27;;;;;;;25.67;15.95;;;10.10;64.80;;;5.92;85.00;95470.09;4995217;28;20038;-47
2022/05/02 02:22:16;;;;;;;25.15;16.67;;;10.00;64.80;;;5.81;84.43;95481.50;4996281;28;20030;-49
2022/05/02 02:24:44;;;;;;;24.05;16.15;;;9.90;64.70;;;5.67;85.19;95467.78;4996185;28;20038;-48
2022/05/02 02:27:10;;;;;;;29.98;16.80;;;9.80;64.70;;;5.59;85.01;95465.50;4995097;28;20134;-47
2022/05/02 02:29:41;;;;;;;27.23;16.88;;;9.70;64.70;;;5.49;85.08;95466.13;4996193;28;20113;-48
2022/05/02 02:32:08;;;;;;;28.80;17.27;;;9.70;65.00;;;5.39;85.95;95458.00;4994998;28;20031;-47
2022/05/02 02:34:33;;;;;;;32.55;18.23;;;9.60;64.90;;;5.34;86.58;95469.25;4994949;28;20038;-47
2022/05/02 02:37:12;;;;;;;34.17;19.80;;;9.50;64.90;;;5.31;87.31;95467.09;4994933;28;20481;-49
2022/05/02 02:39:45;;;;;;;33.90;19.83;;;9.50;65.30;;;5.27;88.83;95463.31;5011236;28;20030;-47
2022/05/02 02:42:11;;;;;;;30.48;19.42;;;9.40;65.30;;;5.27;88.69;95454.59;4994809;28;20030;-47
2022/05/02 02:44:39;;;;;;;34.97;21.30;;;9.40;65.40;;;5.25;89.59;95457.47;4994845;28;20030;-47
2022/05/02 02:47:05;;;;;;;46.42;23.42;;;9.30;65.60;;;5.28;89.60;95458.84;4994692;28;20378;-48
2022/05/02 02:49:34;;;;;;;41.22;23.33;;;9.30;65.90;;;5.29;89.64;95450.66;4995774;28;20040;-50
2022/05/02 02:52:01;;;;;;;37.15;20.50;;;9.30;66.20;;;5.30;88.83;95451.50;5013248;28;20062;-50
2022/05/02 02:54:27;;;;;;;33.65;20.80;;;9.30;66.10;;;5.23;88.13;95454.28;5014548;28;20081;-47
2022/05/02 02:56:56;;;;;;;37.85;21.15;;;9.20;66.00;;;5.12;88.47;95444.53;5015256;28;20025;-46
2022/05/02 02:59:22;;;;;;;39.15;21.45;;;9.20;66.20;;;5.09;88.73;95451.06;5015249;28;20029;-48
2022/05/02 03:01:47;;;;;;;39.35;21.23;;;9.20;66.10;;;5.06;88.73;95448.09;4997710;28;20036;-49
2022/05/02 03:06:58;;;;;;;32.88;18.55;;;9.10;66.00;;;4.87;87.69;95436.88;5000385;28;20041;-47
2022/05/02 03:09:37;;;;;;;32.72;18.20;;;9.00;65.90;;;4.77;87.38;95436.66;4997479;28;20034;-50
2022/05/02 03:12:13;;;;;;;32.95;18.08;;;9.00;66.00;;;4.66;87.19;95421.63;4981247;28;20481;-50
2022/05/02 03:14:41;;;;;;;33.38;19.42;;;8.90;66.00;;;4.59;87.82;95427.03;4997431;28;20033;-51
2022/05/02 03:17:14;;;;;;;36.67;20.45;;;8.80;65.80;;;4.48;87.70;95436.56;4997428;28;20030;-47
2022/05/02 03:19:46;;;;;;;37.42;20.73;;;8.80;66.00;;;4.41;87.26;95431.38;4997388;28;20038;-47
2022/05/02 03:22:12;;;;;;;36.10;19.92;;;8.70;66.00;;;4.33;87.46;95426.47;4997353;28;20030;-49
2022/05/02 03:24:44;;;;;;;36.83;21.48;;;8.60;65.90;;;4.27;87.47;95422.09;4980972;28;20564;-47
2022/05/02 03:27:13;;;;;;;40.38;22.25;;;8.60;66.00;;;4.25;88.16;95423.38;4997026;28;20125;-47
2022/05/02 03:29:41;;;;;;;38.15;20.33;;;8.50;66.20;;;4.21;87.91;95430.13;5014578;28;20033;-46
2022/05/02 03:32:10;;;;;;;36.00;19.65;;;8.50;66.20;;;4.12;88.17;95419.13;4980791;28;20021;-48
2022/05/02 03:34:39;;;;;;;47.70;22.95;;;8.40;66.20;;;4.09;88.60;95416.94;5014607;28;20034;-51
2022/05/02 03:37:16;;;;;;;36.22;19.15;;;8.40;66.30;;;4.05;88.84;95424.50;5014478;28;20026;-46
2022/05/02 03:39:42;;;;;;;39.97;21.33;;;8.30;66.30;;;4.01;89.06;95417.25;5014359;28;20497;-47
2022/05/02 03:42:11;;;;;;;50.08;24.08;;;8.30;66.20;;;4.00;88.77;95415.66;4996700;28;20088;-47
2022/05/02 03:44:39;;;;;;;46.72;24.15;;;8.30;66.40;;;3.91;89.49;95418.59;5014255;28;20118;-47
2022/05/02 03:47:05;;;;;;;56.30;26.60;;;8.20;66.50;;;3.94;89.53;95423.44;4996887;28;20116;-48
2022/05/02 03:49:31;;;;;;;55.42;27.15;;;8.10;66.50;;;3.97;90.02;95424.81;4996628;28;20109;-48
2022/05/02 03:52:06;;;;;;;57.75;27.35;;;8.20;66.70;;;4.00;90.78;95419.09;4993151;28;20498;-49
2022/05/02 03:54:35;;;;;;;58.63;28.00;;;8.20;67.10;;;3.99;90.25;95412.22;4994574;28;20098;-50
2022/05/02 03:57:04;;;;;;;65.10;31.38;;;8.10;67.00;;;4.11;92.30;95413.03;4993417;28;20057;-47
2022/05/02 03:59:42;;;;;;;69.88;33.95;;;8.10;67.30;;;4.42;93.60;95408.47;4977377;28;20403;-46
2022/05/02 04:02:20;;;;;;;50.78;27.65;;;8.20;68.10;;;4.66;93.81;95416.38;4993239;28;20035;-50
2022/05/02 04:04:45;;;;;;;55.70;29.85;;;8.30;68.70;;;4.83;93.67;95415.44;4993263;28;20035;-48
2022/05/02 04:07:13;;;;;;;44.88;26.85;;;8.40;69.10;;;4.94;93.46;95407.72;4993418;28;20033;-49
2022/05/02 04:09:39;;;;;;;47.28;28.02;;;8.50;69.40;;;5.04;92.74;95415.84;4992968;28;20110;-48
2022/05/02 04:12:11;;;;;;;52.20;27.10;;;8.60;70.50;;;5.06;92.30;95408.50;4993262;28;20109;-50
2022/05/02 04:14:40;;;;;;;46.55;27.95;;;8.70;69.80;;;5.19;92.32;95412.69;4994199;28;20030;-47
2022/05/02 04:17:05;;;;;;;50.28;28.05;;;8.80;70.00;;;5.19;91.38;95408.22;4994254;28;20030;-47
2022/05/02 04:19:34;;;;;;;62.40;33.97;;;8.90;69.80;;;5.18;91.48;95419.03;4992940;28;20041;-49
2022/05/02 04:21:59;;;;;;;69.72;34.50;;;9.00;69.90;;;5.22;91.21;95412.22;4994123;28;20030;-47
2022/05/02 04:24:25;;;;;;;68.35;33.55;;;9.10;70.30;;;5.25;91.00;95411.75;4994071;28;20096;-48
2022/05/02 04:26:51;;;;;;;60.63;32.05;;;9.20;70.20;;;5.26;91.04;95410.72;4992844;28;20073;-49
2022/05/02 04:29:16;;;;;;;60.15;29.85;;;9.20;70.00;;;5.27;90.52;95418.41;4992689;28;20041;-49
2022/05/02 04:31:51;;;;;;;58.92;30.60;;;9.30;69.80;;;5.28;90.31;95419.22;4993872;28;20030;-47
2022/05/02 04:34:17;;;;;;;51.72;27.08;;;9.30;69.90;;;5.25;90.09;95409.13;4994074;28;20031;-48
2022/05/02 04:36:42;;;;;;;57.03;28.83;;;9.30;69.60;;;5.25;90.23;95414.41;4992676;28;20452;-49
2022/05/02 04:39:11;;;;;;;50.30;28.85;;;9.30;69.40;;;5.22;90.02;95407.75;4993879;28;20508;-48
2022/05/02 04:41:52;;;;;;;53.95;28.58;;;9.40;69.40;;;5.29;90.02;95415.53;4992413;28;20026;-47
2022/05/02 04:44:21;;;;;;;50.88;27.73;;;9.40;69.30;;;5.31;89.89;95408.97;4993635;28;20084;-48
2022/05/02 04:46:49;;;;;;;55.28;28.48;;;9.40;69.00;;;5.37;89.96;95420.44;4992661;28;20097;-49
2022/05/02 04:49:15;;;;;;;51.83;27.67;;;9.50;68.90;;;5.44;89.76;95426.38;4976197;28;20034;-47
2022/05/02 04:51:41;;;;;;;53.05;28.60;;;9.50;68.70;;;5.53;89.81;95419.69;4992126;28;20129;-48
2022/05/02 04:54:10;;;;;;;58.65;30.27;;;9.60;68.90;;;5.73;90.09;95419.25;4993406;28;20030;-50
2022/05/02 04:56:41;;;;;;;58.28;30.98;;;9.70;68.70;;;5.97;90.28;95424.44;4993506;28;20049;-47
2022/05/02 04:59:31;;;;;;;47.15;26.05;;;9.80;68.60;;;6.18;90.04;95418.47;4992081;28;20026;-47
2022/05/02 05:01:58;;;;;;;52.78;27.08;;;9.90;68.40;;;6.40;89.90;95417.72;4993466;28;20026;-48
2022/05/02 05:04:24;;;;;;;54.20;30.02;;;10.10;68.10;;;6.55;88.46;95419.78;4992275;28;20041;-48
2022/05/02 05:06:53;;;;;;;53.55;29.23;;;10.20;68.00;;;6.75;88.55;95422.72;4992310;28;20030;-50
2022/05/02 05:09:19;;;;;;;47.88;27.65;;;10.40;68.80;;;6.89;87.49;95423.16;4991845;28;20133;-48
2022/05/02 05:12:20;;;;;;;42.08;26.33;;;10.50;67.80;;;7.08;85.85;95413.91;4975979;28;20038;-48
2022/05/02 05:18:09;;;;;;;41.25;26.85;;;11.00;67.50;;;7.44;84.75;95416.16;4992872;28;20108;-48
2022/05/02 05:21:02;;;;;;;34.97;23.73;;;11.20;67.60;;;7.64;83.86;95422.47;4993079;28;20030;-48
2022/05/02 05:24:24;;;;;;;28.63;20.97;;;11.50;67.40;;;7.88;82.01;95420.31;4985846;28;20124;-48
2022/05/02 05:27:02;;;;;;;27.70;19.55;;;11.80;67.00;;;8.16;81.55;95423.75;4993065;28;20050;-47
2022/05/02 05:30:05;;;;;;;25.65;17.33;;;12.10;66.60;;;8.51;80.54;95425.09;4991740;28;20026;-50
2022/05/02 05:33:20;;;;;;;25.10;16.53;;;12.30;66.10;;;8.82;79.03;95420.00;4993130;28;20031;-48
2022/05/02 05:36:34;;;;;;;24.83;18.15;;;12.70;65.60;;;9.19;77.35;95422.56;4992739;28;20103;-48
2022/05/02 05:39:43;;;;;;;20.25;16.00;;;13.00;65.20;;;9.38;75.59;95426.38;4993058;28;20030;-47
2022/05/02 05:42:33;;;;;;;22.40;17.10;;;13.30;64.50;;;9.65;75.04;95422.72;4992803;28;20065;-49
2022/05/02 05:45:42;;;;;;;22.05;15.95;;;13.60;64.00;;;9.84;73.82;95421.19;4992869;28;20065;-47
2022/05/02 05:48:18;;;;;;;20.48;16.05;;;13.90;63.30;;;10.05;72.93;95424.66;4978173;28;20030;-49
2022/05/02 05:51:04;;;;;;;20.35;15.45;;;14.20;62.60;;;10.10;71.63;95430.00;4998024;28;20167;-48
2022/05/02 05:54:03;;;;;;;19.02;15.10;;;14.50;61.80;;;10.15;71.63;95421.22;4975378;28;20030;-47
2022/05/02 05:56:58;;;;;;;20.48;14.90;;;14.70;60.90;;;10.15;71.50;95423.88;4992960;28;20138;-48
2022/05/02 06:00:03;;;;;;;23.40;15.02;;;14.90;60.10;;;10.36;70.29;95427.38;4949829;28;20050;-48
2022/05/02 06:03:08;;;;;;;20.27;15.00;;;15.20;59.50;;;10.64;69.97;95421.50;4994005;28;20057;-50
2022/05/02 06:05:54;;;;;;;19.50;14.90;;;15.40;59.10;;;10.62;68.74;95420.16;5018786;28;20034;-48
2022/05/02 06:08:22;;;;;;;18.60;14.02;;;15.60;58.60;;;10.77;69.29;95428.13;4997769;28;20045;-49
2022/05/02 06:10:51;;;;;;;17.65;14.35;;;15.80;58.10;;;10.91;69.52;95424.94;4988912;28;20022;-51
2022/05/02 06:13:19;;;;;;;16.83;13.65;;;15.90;57.70;;;10.94;67.51;95429.72;4994031;28;20022;-48
2022/05/02 06:18:41;;;;;;;17.27;13.98;;;16.20;56.60;;;11.03;68.29;95436.06;5012541;28;20041;-48
2022/05/02 06:21:07;;;;;;;;;;;16.40;56.20;;;10.89;67.40;95436.66;5012782;28;20485;-51
2022/05/02 06:23:45;;;;;;;17.70;13.95;;;16.50;56.00;;;10.63;68.93;95435.09;5012138;28;19916;-48
2022/05/02 06:26:11;;;;;;;15.85;13.07;;;16.70;55.10;;;11.02;68.28;95435.28;4994942;28;20504;-48
2022/05/02 06:28:44;;;;;;;17.20;13.73;;;16.80;54.90;;;11.31;66.83;95435.47;4994703;28;20549;-49
2022/05/02 06:31:19;;;;;;;17.17;13.48;;;17.00;54.60;;;11.42;66.54;95430.09;5014943;28;20469;-48
2022/05/02 06:33:49;;;;;;;17.70;13.98;;;17.10;54.20;;;11.61;66.47;95433.75;4999601;28;20022;-48
2022/05/02 06:36:39;;;;;;;16.70;13.48;;;17.30;53.90;;;11.82;65.30;95432.56;5015580;28;20033;-49
2022/05/02 06:39:42;;;;;;;18.55;14.10;;;17.40;53.40;;;12.04;65.60;95434.88;4998070;28;20033;-48
2022/05/02 06:42:35;;;;;;;15.77;13.02;;;17.60;53.10;;;12.11;63.71;95436.44;4998090;28;20029;-48
2022/05/02 06:45:04;;;;;;;16.92;13.52;;;17.90;52.60;;;12.15;63.27;95429.47;5015646;28;20064;-48
2022/05/02 06:47:47;;;;;;;15.68;12.90;;;18.00;52.10;;;12.12;63.15;95430.00;4997947;28;20065;-48
2022/05/02 06:50:20;;;;;;;16.23;13.35;;;18.20;51.60;;;12.12;64.23;95427.34;4997906;28;20309;-51
2022/05/02 06:53:12;;;;;;;;;;;18.30;51.20;;;12.45;62.67;95425.78;4998703;28;20038;-48
2022/05/02 06:55:58;;;;;;;16.30;12.88;;;18.40;51.50;;;12.70;63.08;95424.75;4999070;28;20283;-49
2022/05/02 06:59:02;;;;;;;15.55;12.52;;;18.70;50.90;;;12.80;62.88;95429.19;4999358;28;20026;-48
2022/05/02 07:02:12;;;;;;;16.42;12.70;;;19.00;50.10;;;12.49;63.21;95427.59;4998327;28;20485;-50
2022/05/02 07:04:54;;;;;;;15.40;11.60;;;19.20;49.30;;;12.89;62.01;95428.31;4995869;28;20581;-50
2022/05/02 07:07:53;;;;;;;13.80;11.48;;;19.30;49.00;;;13.18;60.85;95424.78;4997920;28;20037;-52
2022/05/02 07:10:39;;;;;;;14.88;11.70;;;19.50;48.50;;;13.39;60.38;95434.22;4997439;28;20489;-48
2022/05/02 07:14:00;;;;;;;13.07;10.65;;;19.80;48.20;;;13.70;60.57;95428.50;4997374;28;20112;-49
2022/05/02 07:16:32;;;;;;;12.73;10.25;;;19.90;48.00;;;13.86;58.52;95429.88;4997246;28;20030;-53
2022/05/02 07:19:48;;;;;;;13.65;11.25;;;20.20;47.40;;;13.93;57.96;95429.53;5014911;28;20029;-55
2022/05/02 07:23:00;;;;;;;14.68;11.48;;;20.40;46.70;;;13.94;58.75;95435.66;5014780;28;20065;-52
2022/05/02 07:25:32;;;;;;;12.43;10.52;;;20.60;46.00;;;14.24;57.60;95434.44;4990944;28;20068;-52
2022/05/02 07:28:39;;;;;;;12.00;10.67;;;20.80;45.90;;;14.45;57.31;95435.72;4997030;28;20033;-50
2022/05/02 07:31:11;;;;;;;11.65;9.95;;;20.90;45.30;;;14.57;55.91;95421.88;5014567;28;20366;-48
2022/05/02 07:33:39;;;;;;;13.13;11.20;;;21.20;45.00;;;14.70;56.30;95431.88;4997554;28;20018;-50
2022/05/02 07:36:22;;;;;;;11.40;9.68;;;21.30;44.70;;;14.95;55.42;95432.53;4995343;28;20504;-48
2022/05/02 07:38:58;;;;;;;;;;;21.50;44.30;;;15.03;54.68;95435.28;4980736;28;20022;-48
2022/05/02 07:41:28;;;;;;;12.48;10.55;;;21.70;44.30;;;15.33;54.47;95432.34;4980155;28;19913;-49
2022/05/02 07:44:04;;;;;;;13.85;10.02;;;21.90;43.70;;;15.54;54.07;95427.38;5013567;28;20515;-50
2022/05/02 07:46:42;;;;;;;12.20;10.90;;;22.00;43.20;;;15.47;53.20;95422.41;4995561;28;20034;-48
2022/05/02 07:49:10;;;;;;;13.68;10.32;;;22.20;42.60;;;15.33;53.35;95422.41;5012228;28;20026;-50
2022/05/02 07:51:47;;;;;;;12.38;10.10;;;22.40;42.10;;;15.32;54.24;95420.00;4979201;28;20053;-54
2022/05/02 07:54:35;;;;;;;12.15;10.23;;;22.40;41.50;;;15.46;53.69;95415.44;5000701;28;20028;-51
2022/05/02 07:57:06;;;;;;;12.88;10.70;;;22.50;41.20;;;15.08;53.80;95417.53;5023991;28;20080;-49
2022/05/02 07:59:39;;;;;;;12.43;10.35;;;22.60;41.20;;;15.27;53.91;95421.72;4996657;28;20026;-50
2022/05/02 08:02:05;;;;;;;12.48;10.52;;;22.70;40.50;;;15.63;54.34;95420.19;4996653;28;20044;-48
2022/05/02 08:04:31;;;;;;;11.88;10.27;;;22.70;40.60;;;16.03;52.90;95415.09;4996681;28;20065;-49
2022/05/02 08:07:34;;;;;;;12.35;11.05;;;22.90;40.60;;;16.38;52.27;95421.53;5013997;28;20148;-54
2022/05/02 08:11:02;;;;;;;11.80;10.07;;;23.10;40.60;;;16.52;52.42;95424.19;4980036;28;20030;-50
2022/05/02 08:14:07;;;;;;;12.98;10.90;;;23.30;40.40;;;16.33;51.49;95411.72;5013872;28;20041;-55
2022/05/02 08:16:53;;;;;;;9.80;8.80;;;23.60;39.60;;;16.47;51.15;95421.59;4982931;28;20401;-53
2022/05/02 08:20:03;;;;;;;11.82;9.88;;;23.70;39.30;;;16.54;50.80;95416.59;4997330;28;20208;-53
2022/05/02 08:29:21;;;;;;;11.98;10.07;;;24.10;38.10;;;17.28;49.02;95416.84;5010057;28;20100;-50
2022/05/02 08:32:15;;;;;;;12.88;10.50;;;24.40;38.00;;;17.69;49.57;95413.03;4998353;28;20467;-51
2022/05/02 08:34:40;;;;;;;12.48;10.38;;;24.60;37.70;;;17.75;47.39;95416.38;5016886;28;20033;-51
2022/05/02 08:37:49;;;;;;;12.68;10.15;;;24.70;37.20;;;17.94;47.49;95424.19;5019192;28;20034;-50
2022/05/02 08:40:27;;;;;;;11.38;10.23;;;24.80;36.80;;;17.38;48.74;95415.00;5015472;28;20034;-50
2022/05/02 08:43:15;;;;;;;12.30;10.98;;;25.10;35.90;;;17.41;48.29;95411.69;5017277;28;20112;-50
2022/05/02 08:46:09;;;;;;;16.42;11.02;;;25.10;35.60;;;17.55;47.77;95407.78;4995820;28;20077;-49
2022/05/02 08:49:33;;;;;;;11.52;10.20;;;25.20;35.50;;;17.76;48.27;95410.66;5017610;28;20122;-51
2022/05/02 08:52:43;;;;;;;13.15;10.40;;;25.30;35.30;;;17.86;46.68;95401.50;4995031;28;20104;-55
2022/05/02 08:55:49;;;;;;;10.52;9.43;;;25.40;34.80;;;18.24;46.10;95412.50;4990689;28;20101;-50
2022/05/02 08:58:55;;;;;;;12.60;10.20;;;25.50;34.80;;;18.52;46.11;95412.16;5014397;28;20477;-50
2022/05/02 09:02:23;;;;;;;13.80;11.20;;;25.70;34.40;;;18.25;45.77;95408.69;5005579;28;20057;-51
2022/05/02 09:05:38;;;;;;;12.50;10.18;;;25.80;34.00;;;18.20;45.46;95408.81;5012788;28;20497;-49
2022/05/02 09:08:53;;;;;;;11.95;9.82;;;26.00;33.90;;;18.10;45.86;95397.56;4998341;28;20112;-52
2022/05/02 09:12:24;;;;;;;11.85;10.60;;;26.00;33.20;;;18.52;45.45;95401.38;5012771;28;20040;-53
2022/05/02 09:15:33;;;;;;;13.38;10.20;;;26.10;33.50;;;18.77;45.34;95398.97;5012952;28;20436;-52
2022/05/02 09:18:33;;;;;;;12.05;8.82;;;26.20;33.20;;;19.19;43.57;95394.56;5012866;28;20390;-49
2022/05/02 09:21:05;;;;;;;10.82;9.73;;;26.40;33.00;;;19.18;43.11;95387.59;4995094;28;20107;-52
2022/05/02 09:24:10;;;;;;;;;;;26.60;32.60;;;19.19;43.81;95397.28;4996607;28;20036;-50
2022/05/02 09:26:49;;;;;;;10.27;9.27;;;26.60;32.60;;;19.33;43.08;95387.03;5001023;28;19916;-48
2022/05/02 09:29:51;;;;;;;9.15;8.25;;;26.80;32.20;;;19.73;42.82;95392.09;5014942;28;20382;-52
2022/05/02 09:33:01;;;;;;;10.40;9.35;;;26.90;32.10;;;19.63;41.86;95379.72;5032169;28;20374;-50
2022/05/02 09:35:34;;;;;;;10.90;9.80;;;27.10;31.80;;;19.87;42.01;95386.47;4983788;28;20029;-53
2022/05/02 09:38:26;;;;;;;10.85;9.75;;;27.20;31.40;;;19.81;42.06;95387.78;5001292;28;20148;-54
2022/05/02 09:41:00;;;;;;;11.17;9.70;;;27.40;31.20;;;19.78;42.26;95388.44;4999780;28;20030;-50
2022/05/02 09:50:46;;;;;;;11.45;10.25;;;27.80;29.90;;;20.28;40.45;95380.25;5018845;28;20041;-51
2022/05/02 09:53:58;;;;;;;10.05;9.05;;;27.90;30.00;;;20.13;38.98;95382.78;5024110;28;20064;-48
2022/05/02 09:56:39;;;;;;;9.27;7.88;;;28.00;29.40;;;20.54;38.18;95379.25;5012471;28;20038;-53
2022/05/02 09:59:26;;;;;;;10.18;9.07;;;28.10;29.10;;;19.74;40.08;95365.88;4980231;28;20030;-49
2022/05/02 10:02:17;;;;;;;9.13;8.23;;;28.20;28.50;;;19.68;41.17;95376.09;4995169;28;20034;-50
2022/05/02 10:05:07;;;;;;;9.25;8.35;;;28.20;28.80;;;20.13;39.75;95364.63;4980837;28;20057;-52
2022/05/02 10:07:52;;;;;;;9.80;8.35;;;28.10;29.20;;;20.43;40.95;95365.34;4998751;28;20400;-51
2022/05/02 10:10:37;;;;;;;9.82;8.93;;;28.20;29.00;;;20.98;39.39;95368.78;5016113;28;20508;-53
2022/05/02 10:13:59;;;;;;;8.30;7.50;;;28.40;29.20;;;20.59;37.33;95362.84;4999000;28;20034;-53
2022/05/02 10:17:17;;;;;;;7.18;6.47;;;28.50;28.60;;;20.70;36.87;95358.56;5016096;28;20030;-49
2022/05/02 10:20:16;;;;;;;7.28;6.30;;;28.60;27.60;;;20.67;35.50;95361.16;5015898;28;20509;-48
2022/05/02 10:23:38;;;;;;;8.27;7.45;;;28.70;27.00;;;20.40;39.57;95365.19;5007179;28;20030;-49
2022/05/02 10:26:50;;;;;;;7.72;7.00;;;28.70;27.40;;;20.25;37.74;95348.47;5035852;28;20065;-49
2022/05/02 10:29:57;;;;;;;10.73;7.22;;;28.80;27.70;;;20.44;37.06;95347.97;5033182;28;20049;-49
2022/05/02 10:32:44;;;;;;;9.15;8.25;;;28.80;27.20;;;20.83;37.58;95345.84;5017375;28;20052;-49
2022/05/02 10:35:17;;;;;;;8.85;7.80;;;28.80;27.20;;;21.17;36.07;95349.28;5016866;28;20021;-50
2022/05/02 10:37:56;;;;;;;7.45;6.78;;;28.90;27.20;;;21.59;35.88;95351.78;4984664;28;20081;-51
2022/05/02 10:40:44;;;;;;;6.70;6.10;;;29.10;27.00;;;21.72;36.08;95347.94;4995550;28;20038;-49
2022/05/02 10:43:25;;;;;;;7.55;6.13;;;29.20;26.80;;;21.88;33.63;95345.31;4984917;28;20493;-48
2022/05/02 10:45:52;;;;;;;6.88;6.25;;;29.40;26.40;;;22.22;34.35;95348.63;5010985;28;20033;-53
2022/05/02 10:48:17;;;;;;;8.95;6.72;;;29.50;26.30;;;22.21;33.83;95350.56;5019790;28;20029;-46
2022/05/02 10:51:17;;;;;;;7.30;6.55;;;29.70;26.20;;;22.42;32.29;95344.16;5017656;28;20118;-50
2022/05/02 10:54:08;;;;;;;5.93;5.32;;;29.90;26.10;;;22.02;32.27;95337.59;4993367;28;20121;-50
2022/05/02 10:56:43;;;;;;;6.20;5.60;;;30.00;25.30;;;22.42;33.20;95336.03;5001681;28;20457;-51
2022/05/02 10:59:13;;;;;;;5.68;4.97;;;30.20;25.50;;;22.26;32.52;95338.69;5017083;28;20056;-51
2022/05/02 11:02:39;;;;;;;5.95;5.45;;;30.30;25.10;;;21.69;33.04;95335.06;5018500;28;20022;-46
2022/05/02 11:05:15;;;;;;;6.72;6.13;;;30.30;25.00;;;22.24;33.51;95330.09;5008117;28;20032;-49
2022/05/02 11:08:18;;;;;;;7.03;5.40;;;30.40;25.00;;;21.82;32.17;95333.91;5014039;28;20037;-48
2022/05/02 11:10:58;;;;;;;6.32;5.10;;;30.60;24.80;;;21.49;32.30;95328.66;5010028;28;20046;-46
2022/05/02 11:13:46;;;;;;;4.95;4.55;;;30.60;24.40;;;21.53;32.27;95324.16;5005934;28;20044;-46
2022/05/02 11:16:40;;;;;;;5.60;5.10;;;30.60;23.90;;;21.95;32.72;95318.41;5016365;28;20512;-46
2022/05/02 11:22:40;;;;;;;5.72;5.18;;;30.70;24.20;;;22.70;30.04;95320.50;5018815;28;20543;-49
2022/05/02 11:25:18;;;;;;;6.40;4.90;;;30.90;23.80;;;22.47;30.42;95320.28;5000913;28;20068;-49
2022/05/02 11:27:59;;;;;;;5.43;5.03;;;31.00;23.80;;;22.47;31.36;95322.19;5001929;28;20049;-48
2022/05/02 11:30:33;;;;;;;5.78;5.22;;;30.90;23.60;;;22.68;30.34;95327.41;4999712;28;20029;-51
2022/05/02 11:33:16;;;;;;;5.03;4.53;;;30.90;23.40;;;22.50;30.45;95313.34;5017347;28;20048;-46
2022/05/02 11:35:48;;;;;;;6.82;6.13;;;31.00;23.10;;;22.29;29.89;95321.72;5016331;28;20033;-49
2022/05/02 11:38:41;;;;;;;6.18;5.57;;;31.10;22.60;;;21.93;31.04;95323.38;5016840;28;20117;-48
2022/05/02 11:41:22;;;;;;;4.85;4.45;;;31.00;22.60;;;22.35;31.36;95312.97;5034283;28;20045;-51